.
WxDataArchive / Data Records for 2010-09-19
2010-09-18 September 2010 2010-09-20

Data Records for Sunday, 19 September 2010

Time	Temp	Chill	HIndex	Humid	Dewpt	 Wind 	HiWind	WindDir	Rain 	Barom 
-----	----	-----	------	-----	-----	------	------	-------	-----	----- 
00:00	63.7	63.7	63.7	91	61.0	0	0	---	0.00	30.148 
00:05	63.5	63.5	63.5	91	60.8	0	0	---	0.00	30.148 
00:10	63.4	63.4	63.4	91	60.7	0	0	---	0.00	30.148 
00:15	63.4	63.4	63.4	91	60.7	0	0	---	0.00	30.143 
00:20	63.2	63.2	63.2	91	60.5	0	0	---	0.00	30.143 
00:25	63.1	63.1	63.1	91	60.4	0	0	---	0.00	30.143 
00:30	62.9	62.9	62.9	91	60.2	0	0	---	0.00	30.145 
00:35	62.7	62.7	62.7	91	60.0	0	0	---	0.00	30.145 
00:40	62.6	62.6	62.6	92	60.2	0	0	---	0.00	30.145 
00:45	62.4	62.4	62.4	92	60.0	0	0	---	0.00	30.154 
00:50	62.4	62.4	62.4	92	60.0	0	0	---	0.00	30.154 
00:55	62.3	62.3	62.3	92	59.9	0	0	---	0.00	30.154 
01:00	62.1	62.1	62.1	92	59.7	0	0	---	0.00	30.151 
01:05	62.1	62.1	62.1	92	59.7	0	0	---	0.00	30.151 
01:10	62.3	62.3	62.3	92	59.9	0	0	---	0.00	30.151 
01:15	62.4	62.4	62.4	93	60.3	0	0	---	0.00	30.149 
01:20	62.4	62.4	62.4	93	60.3	0	0	---	0.00	30.149 
01:25	62.4	62.4	62.4	93	60.3	0	0	---	0.00	30.149 
01:30	62.6	62.6	62.6	93	60.5	0	0	---	0.00	30.153 
01:35	62.6	62.6	62.6	93	60.5	0	0	---	0.00	30.153 
01:40	62.7	62.7	62.7	93	60.6	0	1	0	0.00	30.153 
01:45	62.9	62.9	62.9	93	60.8	0	0	---	0.00	30.159 
01:50	62.9	62.9	62.9	93	60.8	0	0	---	0.00	30.159 
01:55	63.1	63.1	63.1	94	61.3	0	0	---	0.00	30.159 
02:00	63.1	63.1	63.1	93	61.0	0	0	---	0.00	30.160 
02:05	63.1	63.1	63.1	94	61.3	0	0	---	0.00	30.160 
02:10	63.2	63.2	63.2	94	61.4	0	0	---	0.00	30.160 
02:15	63.2	63.2	63.2	93	61.1	0	0	---	0.00	30.156 
02:20	63.1	63.1	63.1	93	61.0	0	0	---	0.00	30.156 
02:25	63.2	63.2	63.2	94	61.4	0	1	0	0.00	30.156 
02:30	63.1	63.1	63.1	94	61.3	0	0	---	0.00	30.142 
02:35	63.1	63.1	63.1	93	61.0	0	0	---	0.00	30.142 
02:40	63.1	63.1	63.1	94	61.3	0	0	---	0.00	30.142 
02:45	63.1	63.1	63.1	94	61.3	0	0	---	0.00	30.141 
02:50	63.1	63.1	63.1	94	61.3	0	0	---	0.00	30.141 
02:55	62.9	62.9	62.9	94	61.1	0	0	---	0.00	30.141 
03:00	62.9	62.9	62.9	94	61.1	0	0	---	0.00	30.134 
03:05	62.9	62.9	62.9	94	61.1	0	0	---	0.00	30.134 
03:10	62.9	62.9	62.9	94	61.1	0	0	---	0.00	30.134 
03:15	62.9	62.9	62.9	94	61.1	0	0	---	0.00	30.143 
03:20	62.9	62.9	62.9	94	61.1	0	0	---	0.00	30.143 
03:25	62.9	62.9	62.9	94	61.1	0	0	---	0.00	30.143 
03:30	62.9	62.9	62.9	94	61.1	0	0	---	0.00	30.143 
03:35	62.9	62.9	62.9	94	61.1	0	0	---	0.00	30.143 
03:40	62.7	62.7	62.7	94	60.9	0	0	---	0.00	30.143 
03:45	62.7	62.7	62.7	94	60.9	0	0	---	0.00	30.141 
03:50	62.7	62.7	62.7	94	60.9	0	0	---	0.00	30.141 
03:55	62.7	62.7	62.7	94	60.9	0	0	---	0.00	30.141 
04:00	62.7	62.7	62.7	94	60.9	0	0	---	0.00	30.143 
04:05	62.7	62.7	62.7	94	60.9	0	0	---	0.00	30.143 
04:10	62.7	62.7	62.7	94	60.9	0	0	---	0.00	30.143 
04:15	62.7	62.7	62.7	94	60.9	0	0	---	0.00	30.141 
04:20	62.7	62.7	62.7	95	61.2	0	0	---	0.00	30.141 
04:25	62.7	62.7	62.7	94	60.9	0	0	---	0.00	30.141 
04:30	62.7	62.7	62.7	95	61.2	0	1	0	0.00	30.138 
04:35	62.7	62.7	62.7	95	61.2	0	0	---	0.00	30.138 
04:40	62.7	62.7	62.7	95	61.2	0	1	0	0.00	30.138 
04:45	62.7	62.7	62.7	95	61.2	0	0	---	0.00	30.135 
04:50	62.7	62.7	62.7	95	61.2	0	1	0	0.00	30.135 
04:55	62.7	62.7	62.7	95	61.2	0	0	---	0.00	30.135 
05:00	62.7	62.7	62.7	95	61.2	0	1	0	0.00	30.144 
05:05	62.7	62.7	62.7	95	61.2	0	1	0	0.00	30.144 
05:10	62.7	62.7	62.7	95	61.2	0	2	0	0.00	30.144 
05:15	62.7	62.7	62.7	94	60.9	0	2	22	0.00	30.143 
05:20	62.7	62.7	62.7	94	60.9	0	1	45	0.00	30.143 
05:25	62.7	62.7	62.7	94	60.9	0	1	45	0.00	30.143 
05:30	62.6	62.6	62.6	94	60.8	0	2	45	0.00	30.144 
05:35	62.6	62.6	62.6	94	60.8	0	3	45	0.00	30.144 
05:40	62.6	62.6	62.6	94	60.8	0	1	45	0.00	30.144 
05:45	62.4	62.4	62.4	94	60.6	0	1	45	0.00	30.146 
05:50	62.4	62.4	62.4	93	60.3	0	1	45	0.00	30.146 
05:55	62.4	62.4	62.4	93	60.3	0	3	68	0.00	30.146 
06:00	62.3	62.3	62.3	93	60.2	0	3	68	0.00	30.143 
06:05	62.3	62.3	62.3	93	60.2	0	0	---	0.00	30.143 
06:10	62.3	62.3	62.3	93	60.2	0	1	68	0.00	30.143 
06:15	62.3	62.3	62.3	93	60.2	0	0	---	0.00	30.147 
06:20	62.3	62.3	62.3	92	59.9	0	2	68	0.00	30.147 
06:25	62.1	62.1	62.1	92	59.7	0	1	68	0.00	30.147 
06:30	62.1	62.1	62.1	92	59.7	0	1	68	0.00	30.157 
06:35	62.1	62.1	62.1	92	59.7	0	0	---	0.00	30.157 
06:40	62.1	62.1	62.1	92	59.7	0	1	68	0.00	30.157 
06:45	62.1	62.1	62.1	92	59.7	0	1	68	0.00	30.152 
06:50	62.1	62.1	62.1	92	59.7	0	0	---	0.00	30.152 
06:55	62.1	62.1	62.1	91	59.4	0	0	---	0.00	30.152 
07:00	62.1	62.1	62.1	91	59.4	0	1	68	0.00	30.154 
07:05	62.1	62.1	62.1	92	59.7	0	1	68	0.00	30.154 
07:10	62.1	62.1	62.1	91	59.4	0	1	68	0.00	30.154 
07:15	62.0	62.0	62.0	91	59.3	0	1	68	0.00	30.150 
07:20	62.0	62.0	62.0	91	59.3	0	2	68	0.00	30.150 
07:25	62.0	62.0	62.0	91	59.3	0	1	68	0.00	30.150 
07:30	61.8	61.8	61.8	92	59.4	0	1	68	0.00	30.144 
07:35	61.8	61.8	61.8	92	59.4	0	3	68	0.00	30.144 
07:40	61.8	61.8	61.8	92	59.4	0	0	---	0.00	30.144 
07:45	61.8	61.8	61.8	92	59.4	0	0	---	0.00	30.154 
07:50	61.8	61.8	61.8	92	59.4	0	0	---	0.00	30.154 
07:55	61.8	61.8	61.8	92	59.4	0	0	---	0.00	30.154 
08:00	61.8	61.8	61.8	92	59.4	0	0	---	0.00	30.162 
08:05	61.8	61.8	61.8	92	59.4	0	0	---	0.00	30.162 
08:10	61.8	61.8	61.8	92	59.4	0	0	---	0.00	30.162 
08:15	61.8	61.8	61.8	92	59.4	0	0	---	0.00	30.152 
08:20	61.6	61.6	61.6	91	58.9	0	1	68	0.00	30.152 
08:25	61.6	61.6	61.6	92	59.2	0	0	---	0.00	30.152 
08:30	61.6	61.6	61.6	92	59.2	0	0	---	0.00	30.165 
08:35	61.6	61.6	61.6	91	58.9	0	0	---	0.00	30.165 
08:40	61.6	61.6	61.6	91	58.9	0	0	---	0.00	30.165 
08:45	61.6	61.6	61.6	91	58.9	0	0	---	0.00	30.167 
08:50	61.8	61.8	61.8	91	59.1	0	0	---	0.00	30.167 
08:55	61.6	61.6	61.6	90	58.6	0	1	68	0.00	30.167 
09:00	61.8	61.8	61.8	90	58.8	0	0	---	0.00	30.166 
09:05	61.8	61.8	61.8	90	58.8	0	1	68	0.00	30.166 
09:10	61.8	61.8	61.8	90	58.8	0	2	68	0.00	30.166 
09:15	61.8	61.8	61.8	90	58.8	1	2	68	0.00	30.168 
09:20	61.6	61.6	61.6	90	58.6	0	2	68	0.00	30.168 
09:25	61.6	61.6	61.6	90	58.6	0	1	68	0.00	30.168 
09:30	61.5	61.5	61.5	90	58.5	0	3	68	0.00	30.172 
09:35	61.3	61.3	61.3	90	58.3	1	2	68	0.00	30.172 
09:40	61.5	61.5	61.5	90	58.5	0	2	68	0.00	30.172 
09:45	61.5	61.5	61.5	90	58.5	0	1	68	0.00	30.181 
09:50	61.5	61.5	61.5	90	58.5	0	0	---	0.00	30.181 
09:55	61.6	61.6	61.6	90	58.6	0	1	68	0.00	30.181 
10:00	61.6	61.6	61.6	90	58.6	0	0	---	0.00	30.195 
10:05	61.6	61.6	61.6	90	58.6	0	3	68	0.00	30.195 
10:10	61.6	61.6	61.6	90	58.6	0	2	292	0.00	30.195 
10:15	61.8	61.8	61.8	90	58.8	0	0	---	0.00	30.195 
10:20	62.0	62.0	62.0	90	59.0	0	1	292	0.00	30.195 
10:25	62.0	62.0	62.0	90	59.0	0	2	292	0.00	30.195 
10:30	62.1	62.1	62.1	89	58.8	0	1	292	0.00	30.196 
10:35	62.3	62.3	62.3	89	59.0	0	4	112	0.00	30.196 
10:40	62.3	62.3	62.3	89	59.0	0	4	112	0.00	30.196 
10:45	62.4	62.4	62.4	89	59.1	0	1	112	0.00	30.201 
10:50	62.6	62.6	62.6	89	59.3	0	2	112	0.00	30.201 
10:55	62.7	62.7	62.7	88	59.1	0	1	112	0.00	30.201 
11:00	62.9	62.9	62.9	88	59.3	0	1	112	0.00	30.201 
11:05	63.1	63.1	63.1	88	59.5	0	1	112	0.00	30.201 
11:10	63.2	63.2	63.2	87	59.3	0	3	112	0.00	30.201 
11:15	63.4	63.4	63.4	87	59.5	0	1	112	0.00	30.201 
11:20	63.9	63.9	63.9	87	59.9	0	1	112	0.00	30.201 
11:25	64.0	64.0	64.0	85	59.4	1	3	112	0.00	30.201 
11:30	64.2	64.2	64.2	85	59.6	0	2	112	0.00	30.198 
11:35	64.5	64.5	64.5	85	59.9	0	2	112	0.00	30.198 
11:40	64.7	64.7	64.7	84	59.7	1	3	112	0.00	30.198 
11:45	64.8	64.8	64.8	84	59.8	0	2	112	0.00	30.197 
11:50	65.2	65.2	65.2	84	60.2	0	1	112	0.00	30.197 
11:55	65.6	65.6	65.6	82	59.9	1	3	112	0.00	30.197 
12:00	65.6	65.6	65.6	82	59.9	0	2	112	0.00	30.197 
12:05	65.8	65.8	65.8	81	59.8	1	3	112	0.00	30.197 
12:10	66.0	66.0	66.0	81	60.0	0	2	112	0.00	30.197 
12:15	66.1	66.1	66.1	81	60.1	0	2	112	0.00	30.191 
12:20	66.3	66.3	66.3	80	59.9	0	1	112	0.00	30.191 
12:25	66.4	66.4	66.4	80	60.0	0	3	112	0.00	30.191 
12:30	66.4	66.4	66.4	78	59.3	1	4	112	0.00	30.184 
12:35	66.6	66.6	66.6	78	59.5	0	1	112	0.00	30.184 
12:40	66.8	66.8	66.8	78	59.7	0	3	112	0.00	30.184 
12:45	67.1	67.1	67.1	77	59.6	0	3	112	0.00	30.183 
12:50	67.3	67.3	67.3	78	60.2	1	3	112	0.00	30.183 
12:55	67.4	67.4	67.4	77	59.9	0	2	112	0.00	30.183 
13:00	67.4	67.4	67.4	76	59.6	0	2	112	0.00	30.184 
13:05	67.6	67.6	67.6	75	59.4	1	3	112	0.00	30.184 
13:10	67.8	67.8	67.8	76	59.9	1	3	112	0.00	30.184 
13:15	68.1	68.1	68.1	75	59.9	1	3	112	0.00	30.183 
13:20	68.6	68.6	68.6	74	60.0	1	3	112	0.00	30.183 
13:25	69.4	69.4	69.4	72	60.0	1	3	112	0.00	30.183 
13:30	69.6	69.6	69.6	71	59.8	1	4	112	0.00	30.180 
13:35	69.4	69.4	69.4	71	59.6	0	2	112	0.00	30.180 
13:40	69.4	69.4	69.4	71	59.6	0	1	112	0.00	30.180 
13:45	69.6	69.6	69.6	71	59.8	0	1	112	0.00	30.180 
13:50	69.4	69.4	69.4	70	59.2	0	2	112	0.00	30.180 
13:55	69.4	69.4	69.4	73	60.4	0	1	112	0.00	30.180 
14:00	69.9	69.9	69.9	69	59.3	1	4	112	0.00	30.175 
14:05	70.6	70.6	70.6	70	60.3	0	2	112	0.00	30.175 
14:10	70.8	70.8	70.8	68	59.7	1	3	112	0.00	30.175 
14:15	70.8	70.8	70.8	69	60.1	0	1	112	0.00	30.170 
14:20	70.9	70.9	70.9	68	59.8	1	4	112	0.00	30.170 
14:25	71.5	71.5	71.5	69	60.8	1	3	112	0.00	30.170 
14:30	71.6	71.6	71.6	66	59.6	1	4	90	0.00	30.165 
14:35	71.5	71.5	71.5	69	60.8	1	3	112	0.00	30.165 
14:40	71.3	71.3	71.3	69	60.6	0	3	112	0.00	30.165 
14:45	71.5	71.5	71.5	70	61.2	1	4	112	0.00	30.158 
14:50	71.6	71.6	71.6	66	59.6	2	4	112	0.00	30.158 
14:55	72.1	72.1	72.1	67	60.5	1	4	112	0.00	30.158 
15:00	72.7	72.7	72.7	65	60.2	1	3	112	0.00	30.147 
15:05	72.8	72.8	72.8	64	59.9	1	5	90	0.00	30.147 
15:10	73.3	73.3	73.3	63	59.9	0	3	90	0.00	30.147 
15:15	73.3	73.3	73.3	63	59.9	1	4	90	0.00	30.142 
15:20	72.8	72.8	72.8	66	60.8	0	3	90	0.00	30.142 
15:25	72.7	72.7	72.7	65	60.2	1	5	90	0.00	30.142 
15:30	72.8	72.8	72.8	65	60.3	1	4	90	0.00	30.134 
15:35	73.2	73.2	73.2	63	59.8	1	4	90	0.00	30.134 
15:40	73.3	73.3	73.3	65	60.8	1	3	90	0.00	30.134 
15:45	73.5	73.5	73.5	62	59.7	1	4	90	0.00	30.131 
15:50	73.7	73.7	73.7	62	59.9	0	1	90	0.00	30.131 
15:55	73.7	73.7	73.7	62	59.9	0	2	90	0.00	30.131 
16:00	73.9	73.9	73.9	63	60.5	1	5	90	0.00	30.129 
16:05	73.9	73.9	73.9	62	60.0	0	1	90	0.00	30.129 
16:10	73.7	73.7	73.7	63	60.3	0	2	90	0.00	30.129 
16:15	73.3	73.3	73.3	63	59.9	1	3	90	0.00	30.125 
16:20	73.2	73.2	73.2	65	60.7	1	4	90	0.00	30.125 
16:25	73.2	73.2	73.2	63	59.8	1	3	90	0.00	30.125 
16:30	73.2	73.2	73.2	61	58.9	1	4	90	0.00	30.119 
16:35	73.0	73.0	73.0	62	59.2	1	3	90	0.00	30.119 
16:40	73.0	73.0	73.0	63	59.6	0	3	90	0.00	30.119 
16:45	73.0	73.0	73.0	62	59.2	1	4	90	0.00	30.117 
16:50	73.3	73.3	73.3	62	59.5	0	2	90	0.00	30.117 
16:55	73.5	73.5	73.5	60	58.7	0	3	90	0.00	30.117 
17:00	73.7	73.7	73.7	62	59.9	1	3	90	0.00	30.113 
17:05	73.9	73.9	73.9	61	59.6	0	4	90	0.00	30.113 
17:10	73.9	73.9	73.9	61	59.6	0	3	90	0.00	30.113 
17:15	74.0	74.0	74.0	60	59.2	1	6	90	0.00	30.106 
17:20	73.9	73.9	73.9	61	59.6	1	4	90	0.00	30.106 
17:25	73.9	73.9	73.9	60	59.1	1	5	90	0.00	30.106 
17:30	73.9	73.9	73.9	60	59.1	1	4	90	0.00	30.104 
17:35	73.7	73.7	73.7	61	59.4	1	4	90	0.00	30.104 
17:40	73.7	73.7	73.7	61	59.4	1	3	90	0.00	30.104 
17:45	73.7	73.7	73.7	61	59.4	1	4	90	0.00	30.106 
17:50	73.9	73.9	73.9	60	59.1	1	4	90	0.00	30.106 
17:55	73.9	73.9	73.9	60	59.1	2	4	112	0.00	30.106 
18:00	73.9	73.9	73.9	60	59.1	1	4	112	0.00	30.103 
18:05	73.7	73.7	73.7	60	58.9	2	3	112	0.00	30.103 
18:10	73.7	73.7	73.7	59	58.5	2	5	112	0.00	30.103 
18:15	73.7	73.7	73.7	60	58.9	2	5	90	0.00	30.103 
18:20	73.5	73.5	73.5	60	58.7	1	3	68	0.00	30.103 
18:25	73.5	73.5	73.5	60	58.7	1	2	68	0.00	30.103 
18:30	73.2	73.2	73.2	60	58.5	1	4	90	0.00	30.104 
18:35	73.0	73.0	73.0	60	58.3	1	4	112	0.00	30.104 
18:40	72.8	72.8	72.8	61	58.6	0	2	112	0.00	30.104 
18:45	72.7	72.7	72.7	61	58.5	0	2	112	0.00	30.104 
18:50	72.5	72.5	72.5	61	58.3	1	3	112	0.00	30.104 
18:55	72.3	72.3	72.3	62	58.5	1	3	112	0.00	30.104 
19:00	72.1	72.1	72.1	62	58.3	1	4	112	0.00	30.102 
19:05	72.0	72.0	72.0	63	58.7	0	1	112	0.00	30.102 
19:10	71.8	71.8	71.8	63	58.5	0	1	112	0.00	30.102 
19:15	71.6	71.6	71.6	63	58.3	0	1	112	0.00	30.102 
19:20	71.3	71.3	71.3	64	58.5	0	1	112	0.00	30.102 
19:25	71.1	71.1	71.1	65	58.7	0	0	---	0.00	30.102 
19:30	70.8	70.8	70.8	65	58.4	0	0	---	0.00	30.105 
19:35	70.3	70.3	70.3	66	58.4	0	0	---	0.00	30.105 
19:40	70.1	70.1	70.1	67	58.6	0	2	112	0.00	30.105 
19:45	69.8	69.8	69.8	67	58.3	0	2	112	0.00	30.105 
19:50	69.6	69.6	69.6	68	58.6	0	1	112	0.00	30.105 
19:55	69.4	69.4	69.4	68	58.4	0	1	112	0.00	30.105 
20:00	69.1	69.1	69.1	69	58.5	0	0	---	0.00	30.115 
20:05	68.9	68.9	68.9	69	58.3	0	0	---	0.00	30.115 
20:10	68.6	68.6	68.6	69	58.0	0	0	---	0.00	30.115 
20:15	68.3	68.3	68.3	70	58.1	0	1	112	0.00	30.118 
20:20	68.1	68.1	68.1	71	58.3	0	0	---	0.00	30.118 
20:25	67.8	67.8	67.8	72	58.4	0	0	---	0.00	30.118 
20:30	67.4	67.4	67.4	72	58.1	0	0	---	0.00	30.121 
20:35	67.3	67.3	67.3	73	58.3	0	0	---	0.00	30.121 
20:40	67.1	67.1	67.1	74	58.5	0	0	---	0.00	30.121 
20:45	66.9	66.9	66.9	75	58.7	0	0	---	0.00	30.123 
20:50	66.9	66.9	66.9	74	58.3	0	0	---	0.00	30.123 
20:55	67.1	67.1	67.1	74	58.5	0	0	---	0.00	30.123 
21:00	67.1	67.1	67.1	74	58.5	0	0	---	0.00	30.121 
21:05	67.3	67.3	67.3	73	58.3	0	1	112	0.00	30.121 
21:10	67.3	67.3	67.3	73	58.3	0	0	---	0.00	30.121 
21:15	67.3	67.3	67.3	73	58.3	0	0	---	0.00	30.125 
21:20	67.3	67.3	67.3	73	58.3	0	0	---	0.00	30.125 
21:25	67.1	67.1	67.1	74	58.5	0	0	---	0.00	30.125 
21:30	66.9	66.9	66.9	74	58.3	0	0	---	0.00	30.124 
21:35	66.8	66.8	66.8	74	58.2	0	1	112	0.00	30.124 
21:40	66.6	66.6	66.6	74	58.0	0	1	112	0.00	30.124 
21:45	66.4	66.4	66.4	75	58.2	0	0	---	0.00	30.124 
21:50	66.3	66.3	66.3	75	58.1	0	0	---	0.00	30.124 
21:55	66.0	66.0	66.0	76	58.2	0	0	---	0.00	30.124 
22:00	65.8	65.8	65.8	77	58.4	0	0	---	0.00	30.129 
22:05	65.5	65.5	65.5	77	58.1	0	0	---	0.00	30.129 
22:10	65.3	65.3	65.3	77	57.9	0	0	---	0.00	30.129 
22:15	65.0	65.0	65.0	78	58.0	0	0	---	0.00	30.123 
22:20	64.7	64.7	64.7	79	58.0	0	1	112	0.00	30.123 
22:25	64.7	64.7	64.7	80	58.4	1	3	112	0.00	30.123 
22:30	64.7	64.7	64.7	78	57.7	1	4	68	0.00	30.128 
22:35	64.8	64.8	64.8	78	57.8	0	2	68	0.00	30.128 
22:40	64.7	64.7	64.7	77	57.3	0	2	68	0.00	30.128 
22:45	64.5	64.5	64.5	77	57.1	1	3	68	0.00	30.132 
22:50	64.3	64.3	64.3	77	56.9	1	4	90	0.00	30.132 
22:55	64.0	64.0	64.0	77	56.6	1	3	90	0.00	30.132 
23:00	63.9	63.9	63.9	77	56.5	1	3	90	0.00	30.137 
23:05	63.5	63.5	63.5	77	56.2	1	3	90	0.00	30.137 
23:10	63.4	63.4	63.4	77	56.1	1	5	90	0.00	30.137 
23:15	63.1	63.1	63.1	77	55.8	1	3	90	0.00	30.138 
23:20	62.9	62.9	62.9	77	55.6	2	5	68	0.00	30.138 
23:25	62.7	62.7	62.7	77	55.4	1	3	68	0.00	30.138 
23:30	62.4	62.4	62.4	78	55.4	2	5	90	0.00	30.138 
23:35	62.3	62.3	62.3	78	55.3	1	4	90	0.00	30.138 
23:40	62.0	62.0	62.0	78	55.1	1	5	90	0.00	30.138 
23:45	61.8	61.8	61.8	78	54.9	2	9	90	0.00	30.138 
23:50	61.5	61.5	61.5	77	54.2	1	4	90	0.00	30.138 
23:55	61.3	61.3	61.3	78	54.4	1	4	90	0.00	30.138 

CoCoRaHS
IN-AL-39
A2 Web Hosting
Creative Commons License
GoDaddy
search engine by freefind advanced

loaded 2018-11-21 00:28:50 • last modified 2010-11-18 10:43:29
Privacy PolicyDisclaimer
• wx.awcolley.com is powered by PmWiki v.2002016 •
• all content (unless otherwise noted) © 2018 A W Colley